AirNav   Everest Fuels
 
 1605 users online  

8PS5 HMC Hangar Heliport
Hershey, Pennsylvania, USA

GOING TO HERSHEY?


FAA INFORMATION EFFECTIVE 10 SEPTEMBER 2020

Location

FAA Identifier: 8PS5
Lat/Long: 40-15-42.9000N 076-41-04.9500W
40-15.715000N 076-41.082500W
40.2619167,-76.6847083
(estimated)
Elevation: 421 ft. / 128 m (estimated)
Variation: 10W (1985)
From city: 2 miles SW of HERSHEY, PA
Time zone: UTC -4 (UTC -5 during Standard Time)
Zip code: 17036

Heliport Operations

Heliport use: Private use, MEDICAL USE
Activation date: 04/1988
Control tower: no
ARTCC: NEW YORK CENTER
FSS: WILLIAMSPORT FLIGHT SERVICE STATION
Attendance: CONTINUOUS
Wind indicator: lighted
Segmented circle: no
Lights: ACTVT PERIMETER LGTS - 123.050.

Heliport Communications

UNICOM: 123.05
WX ASOS at MDT (5 nm SW): 118.8 (717-944-1372)
WX ASOS at CXY (8 nm W): PHONE 717-770-0880
WX ASOS at MUI (12 nm NE): 124.175 (717-861-2536)
WX AWOS-2 at 9D4 (17 nm E): 118.45 (717-866-2906)
WX ASOS at LNS (20 nm SE): 125.675 (717-569-8860)

Nearby radio navigation aids

VOR radial/distance  VOR name  Freq  Var
HARr108/17.8HARRISBURG VORTAC112.5010W
RAVr204/17.9RAVINE VORTAC114.6011W
LRPr304/19.9LANCASTER VOR/DME117.3009W
SEGr172/33.0SELINSGROVE VOR/DME110.4008W

 
NDB name  Hdg/Dist  Freq  Var  ID
ENOLA096/9.920411WMD -- -..
BELLGROVE220/12.132810WBZJ -... --.. .---

Heliport Services

Fuel available: A

Runway Information

Helipad H1

Dimensions: 80 x 80 ft. / 24 x 24 m
Surface: concrete
Latitude: 40-15.715000N
Longitude: 076-41.082500W
Elevation: 421.0 ft.
Traffic pattern: leftleft

Heliport Ownership and Management from official FAA records

Ownership: Privately-owned
Owner: THE MILTON S HERSHEY MED CNTR
BOX 850 500 UNIVERSITY DRIVE
HERSHEY, PA 17033
Phone 717-531-7365
Manager: DIRECTOR OF OPERATIONS
BOX 850 500 UNIVERSITY DRIVE
HERSHEY, PA 17033
Phone 717-531-5879

Heliport Operational Statistics

Aircraft based on the field: 2
Helicopters: 2
    

Additional Remarks

A40 PERIMETER LGTS
40 FT CIRC TLOF MARKED.
FOR CD CTC HARRISBURG APCH AT 800-932-0712.

Instrument Procedures

There are no published instrument procedures at 8PS5.

Some nearby airports with instrument procedures:

58N - Reigle Field Airport (5 nm E)
KMDT - Harrisburg International Airport (5 nm SW)
KCXY - Capital City Airport (8 nm W)
N71 - Donegal Springs Airpark (11 nm SE)
KMUI - Muir Army Airfield (Fort Indiantown Gap) (12 nm NE)
08N - Keller Brothers Airport (16 nm E)
9D4 - Deck Airport (17 nm E)
74N - Bendigo Airport (19 nm N)
KLNS - Lancaster Airport (20 nm SE)
 
Loc | Ops | Rwys | IFR | FBO | Links
Com | Nav | Svcs | Stats | Notes
Area around 8PS5 (HMC Hangar Heliport)
 
Road maps at: MapQuest Bing Google
 
Aerial photo
No photo
 
Sectional chart

 
Airport distance calculator
Flying to HMC Hangar Heliport? Find the distance to fly.

From to 8PS5

Sunrise and sunset
Times for 29-Sep-2020
 Local
(UTC-4)
 Zulu
(UTC)
Morning civil twilight06:3610:36
Sunrise07:0311:03
Sunset18:5022:50
Evening civil twilight19:1823:18

Current date and time
Zulu (UTC)  29-Sep-2020 19:28:03
Local (UTC-4)  29-Sep-2020 15:28:03
 
METAR
KMDT 
5nm SW 
291856Z 33008KT 10SM FEW015 OVC025 19/15 A2980 RMK AO2 RAB30E48 SLP088 P0000 T01890150
KCXY 
8nm W 
291856Z 32010KT 10SM FEW015 OVC026 19/14 A2981 RMK AO2 SLP092 T01890144
KMUI 
11nm NE 
291856Z 34010G14KT 10SM BKN022 OVC031 18/16 A2979 RMK AO2A SLP089 T01830155
KLNS 
20nm SE 
291853Z 30012KT 10SM FEW025 BKN033 23/17 A2978 RMK AO2 SLP080 T02280172
TAF
KMDT 
5nm SW 
291743Z 2918/3018 27006KT P6SM VCSH BKN025 FM291900 31008KT 6SM -SHRA VCTS OVC030CB FM300300 32007KT 3SM -SHRA BR OVC012 FM301100 31008KT P6SM -SHRA OVC015 FM301300 29010G17KT P6SM BKN050 OVC100 FM301500 28014G24KT P6SM SCT050
KMUI 
11nm NE 
291615Z 2916/3017 15006KT 9999 OVC015 QNH2979INS BECMG 2916/2918 18009KT 6000 -SHRA OVC015 QNH2972INS BECMG 3003/3005 31009KT 9000 -SHRA BKN009 OVC015 QNH2967INS TEMPO 3005/3010 BKN007 BECMG 3012/3013 29009KT 9999 NSW BKN020 OVC030 QNH2960INS BECMG 3014/3015 26010G22KT 9999 BKN020 OVC030 QNH2962INS TX24/2918Z TN13/3007Z
KLNS 
20nm SE 
291743Z 2918/3018 15004KT P6SM VCSH BKN025 FM292000 31008KT 6SM -SHRA VCTS OVC030CB FM300300 32007KT 3SM -SHRA BR OVC012 FM301100 31008KT P6SM -SHRA OVC015 FM301300 29010G17KT P6SM BKN050 OVC100 FM301500 28014G24KT P6SM SCT050
NOTAMs
Click for the latest NOTAMs
NOTAMs are issued by the DoD/FAA and will open in a separate window not controlled by AirNav.

 

 
 

Would you like to see your business listed on this page?

 If your business provides an interesting product or service to pilots, flight crews, aircraft, or users of the HMC Hangar Heliport, you should consider listing it here.  To start the listing process, click on the button below
 
Add a business
 

Other Pages about HMC Hangar Heliport

Update a link
 
Copyright © AirNav, LLC. All rights reserved. Privacy Policy  Contact